Tiempo atmosférico en la estación meteorológica de Silleda, Pontevedra (422 m.)



Fecha
DESCASC
Temp. máxima en grados centígrados (hora)
DESCASC
Temp. mínima en grados centígrados (hora)
DESCASC
Temp. media en grados centígrados
DESCASC
Racha de viento máxima en m/sg (hora)
DESCASC
Velocidad máxima media en intervalos de 10 minutos(hora)
DESCASC
Precipitaciones diarias en mm
DESCASC
Precipitaciones de 00:00 a 06:00 en mm
DESCASC
Precipitaciones de 06:00 a 12:00 en mm
DESCASC
Precipitaciones de 12:00 a 18:00 en mm
DESCASC
Precipitaciones de 18:00 a 24:00 en mm
DESCASC
17-02-2019 13.6 (14:20) 6.2 (21:40) 9.9 9.17 (12:20) 3.89 (04:30) 5 0 0 0 5
16-02-2019 20.5 (14:30) 6 (03:10) 13.3 8.61 (08:40) 6.11 (08:30) 0 0 0 0 0
15-02-2019 19.7 (13:40) 7.4 (23:59) 13.6 11.11 (02:30) 7.78 (03:30) 0 0 0 0 0
14-02-2019 18.9 (16:00) 6.1 (00:00) 12.5 10.56 (13:00) 6.67 (21:40) 0 0 0 0 0
13-02-2019 17.5 (13:40) 5.2 (00:00) 11.3 6.94 (05:20) 4.72 (05:20) 0 0 0 0 0
12-02-2019 18.7 (15:40) 4.9 (00:00) 11.8 8.06 (09:20) 5.28 (09:20) 0 0 0 0 0
11-02-2019 13.7 (16:30) 2.3 (00:00) 8 5.56 (23:59) 3.89 (23:59) 0 0 0 0 0
10-02-2019 11.9 (15:40) 3.8 (00:00) 7.8 11.67 (02:30) 4.72 (08:20) 14.6 9.6 5 0 0
09-02-2019 11 (13:10) 8.8 (00:00) 9.9 11.11 (23:50) 4.44 (08:50) 3 0 0 0.6 2.4
08-02-2019 13.1 (13:40) 3 (00:00) 8.1 12.22 (13:50) 3.06 (13:50) 1.6 0 0 1.4 0.2
07-02-2019 13 (15:50) 4.6 (00:00) 8.8 4.44 (01:50) 2.5 (01:50) 1.4 1 0.4 0 0
06-02-2019 13.3 (15:40) 4.7 (07:00) 9 6.11 (13:20) 3.06 (03:40) 0 0 0 0 0
05-02-2019 15.1 (13:40) 8 (03:30) 11.6 4.17 (18:00) 2.5 (18:00) 0.2 0.2 0 0 0
04-02-2019 10.1 (12:40) 2.1 (00:00) 6.1 5.83 (12:00) 2.78 (01:20) 0 0 0 0 0
03-02-2019 10.3 (15:10) -1.7 (-00:0) 4.3 4.17 (10:10) 2.78 (10:00) 0.2 0.2 0 0 0
02-02-2019 8.1 (15:20) 0.4 (00:00) 4.3 15 (01:00) 6.39 (01:00) 8 3.2 1.4 2.8 0.6
01-02-2019 6.1 (16:40) 2.4 (00:00) 4.3 15.28 (10:40) 7.78 (07:50) 24.8 5.8 12.4 5.6 1
31-01-2019 11.7 (13:00) 4.6 (00:00) 8.1 13.06 (05:50) 5.28 (07:30) 44 17.2 12.2 9 5.6
30-01-2019 10.9 (20:50) 2.9 (00:00) 6.9 11.11 (17:50) 5 (18:00) 16.6 0 0.6 4.2 11.8
29-01-2019 9.8 (12:40) 4.5 (00:00) 7.2 13.33 (11:50) 7.5 (13:10) 12.6 0.6 4.8 6.2 1
28-01-2019 10.7 (16:00) 5.9 (00:00) 8.3 7.22 (13:20) 3.89 (13:40) 2.8 0.2 1.6 1 0
27-01-2019 10.2 (14:40) 4.1 (00:00) 7.1 10 (01:50) 5 (14:50) 2.6 1.6 0.4 0.6 0
26-01-2019 12.5 (14:00) 0.7 (00:00) 6.6 6.67 (04:40) 3.61 (11:00) 0 0 0 0 0
25-01-2019 11.4 (16:20) 5.1 (00:00) 8.2 6.11 (10:30) 2.22 (15:40) 0 0 0 0 0
24-01-2019 10.3 (15:00) 8.2 (00:00) 9.3 7.5 (01:20) 3.61 (01:10) 3.6 2 0.6 0.8 0.2
23-01-2019 10.2 (15:00) 6.9 (00:00) 8.5 11.11 (07:30) 5 (08:00) 11.4 3.4 4.8 2 1.2
22-01-2019 8.3 (12:10) 5.1 (00:00) 6.7 8.89 (23:10) 4.72 (15:50) 5.2 0 1 1.6 2.6
21-01-2019 10.8 (12:50) 3.9 (00:00) 7.4 3.89 (13:10) 2.22 (13:10) 0.2 0.2 0 0 0
20-01-2019 9 (14:10) 5.2 (00:00) 7.1 6.67 (15:10) 3.33 (14:40) 6 1 0.8 3.4 0.8
19-01-2019 11.4 (16:00) 6.4 (00:00) 8.9 10 (16:00) 4.44 (19:40) 24.8 0.8 2.4 14.8 6.8

Gráficas

Temp. máximas Temp. mínimas Temp. medias Precipitaciones Rachas de viento máximas Velocidades máximas media en intervalos de 10 minutos

Datos horarios

Fecha y hora oficial Temperatura (ºC) Velocidad del viento (km/h) Dirección del viento Racha (km/h) Dirección de racha Precipitación (mm) Presión (hPa) Tendencia (hPa) Humedad (%)
2019-02-17 23:00:00 6.2 0 Calma 4 Noroeste 0 -- -- 98
2019-02-17 22:00:00 6.4 0 Calma 9 Noroeste 0.8 -- -- 98
2019-02-17 21:00:00 6.5 2 Sudoeste 11 Sudeste 1.4 -- -- 97
2019-02-17 20:00:00 6.5 0 Calma 14 Noroeste 1.2 -- -- 97
2019-02-17 19:00:00 7.2 9 Noroeste 22 Noroeste 0.4 -- -- 93
2019-02-17 18:00:00 11.6 3 Sur 18 Sur 0 -- -- 72
2019-02-17 17:00:00 12.1 5 Sudoeste 18 Oeste 0 -- -- 72
2019-02-17 16:00:00 12.7 8 Sur 21 Sur 0 -- -- 66
2019-02-17 15:00:00 13.2 6 Sudoeste 31 Sur 0 -- -- 64
2019-02-17 14:00:00 13.4 9 Sur 26 Sur 0 -- -- 61
2019-02-17 13:00:00 13.2 5 Sur 33 Sur 0 -- -- 62
2019-02-17 12:00:00 13.2 6 Sur 24 Sur 0 -- -- 64
2019-02-17 11:00:00 13.1 6 Sudoeste 20 Sur 0 -- -- 64
2019-02-17 10:00:00 12.6 5 Sur 22 Sur 0 -- -- 64
2019-02-17 09:00:00 9.7 6 Este 13 Este 0 -- -- 73
2019-02-17 08:00:00 10 9 Sudeste 17 Sudeste 0 -- -- 67
2019-02-17 07:00:00 9.9 8 Este 15 Este 0 -- -- 67
2019-02-17 06:00:00 10.7 7 Sudeste 18 Sur 0 -- -- 64
2019-02-17 05:00:00 11.4 10 Sur 27 Sur 0 -- -- 63
2019-02-17 04:00:00 11.4 10 Sur 21 Sur 0 -- -- 65
2019-02-17 03:00:00 11.4 0 Calma 21 Sur 0 -- -- 62
2019-02-17 02:00:00 10.5 12 Sudeste 22 Sudeste 0 -- -- 60
2019-02-17 01:00:00 10.5 7 Este 19 Sudeste 0 -- -- 58
2019-02-17 00:00:00 10.3 6 Este 13 Sudeste 0 -- -- 59
2019-02-16 23:00:00 9.8 2 Este 10 Oeste 0 -- -- 62
2019-02-16 22:00:00 10.9 0 Calma 11 Noroeste 0 -- -- 60
2019-02-16 21:00:00 11.1 8 Noroeste 15 Noroeste 0 -- -- 61
2019-02-16 20:00:00 12 6 Noroeste 15 Noroeste 0 -- -- 64
2019-02-16 19:00:00 14.1 2 Noroeste 12 Noroeste 0 -- -- 61
2019-02-16 18:00:00 17 6 Noroeste 14 Noroeste 0 -- -- 50
2019-02-16 17:00:00 18 5 Noroeste 11 Norte 0 -- -- 50
2019-02-16 16:00:00 19.1 6 Noroeste 14 Noroeste 0 -- -- 47
2019-02-16 15:00:00 18.6 10 Noroeste 17 Noroeste 0 -- -- 51
2019-02-16 14:00:00 18.8 10 Noroeste 15 Noroeste 0 -- -- 42
2019-02-16 13:00:00 18.4 7 Noroeste 13 Noroeste 0 -- -- 44
2019-02-16 12:00:00 19.1 8 Sudeste 20 Sudeste 0 -- -- 38
2019-02-16 11:00:00 15.1 12 Sudeste 21 Sudeste 0 -- -- 46
2019-02-16 10:00:00 12.8 13 Sudeste 29 Sudeste 0 -- -- 51
2019-02-16 09:00:00 10.7 21 Sudeste 31 Sudeste 0 -- -- 60
2019-02-16 08:00:00 10.1 19 Sudeste 31 Sudeste 0 -- -- 63
2019-02-16 07:00:00 8.6 17 Sudeste 27 Sudeste 0 -- -- 70
2019-02-16 06:00:00 7.2 11 Sudeste 24 Sudeste 0 -- -- 74
2019-02-16 05:00:00 6.6 12 Este 19 Sudeste 0 -- -- 78
2019-02-16 04:00:00 7.9 14 Sudeste 21 Sudeste 0 -- -- 75
2019-02-16 03:00:00 6.6 10 Este 14 Sudeste 0 -- -- 81
2019-02-16 02:00:00 6.7 12 Este 15 Este 0 -- -- 84
2019-02-16 01:00:00 7.7 10 Este 15 Sudeste 0 -- -- 79
2019-02-16 00:00:00 7.4 9 Este 12 Este 0 -- -- 83
2019-02-15 23:00:00 9.5 0 Calma 4 Este 0 -- -- 74
2019-02-15 22:00:00 9.8 0 Calma 3 Nordeste 0 -- -- 73
2019-02-15 21:00:00 10.7 3 Este 3 Este 0 -- -- 69
2019-02-15 20:00:00 11.8 0 Calma 2 Este 0 -- -- 66
2019-02-15 19:00:00 13 0 Calma 3 Sudeste 0 -- -- 62
2019-02-15 18:00:00 15.5 0 Calma 9 Noroeste 0 -- -- 53
2019-02-15 17:00:00 16.3 4 Noroeste 12 Noroeste 0 -- -- 51
2019-02-15 16:00:00 16.4 8 Noroeste 14 Noroeste 0 -- -- 48
2019-02-15 15:00:00 17.5 9 Noroeste 17 Noroeste 0 -- -- 49
2019-02-15 14:00:00 18.8 6 Noroeste 16 Noroeste 0 -- -- 44
2019-02-15 13:00:00 17.8 6 Este 20 Sudeste 0 -- -- 48
2019-02-15 12:00:00 15.8 14 Sudeste 23 Sudeste 0 -- -- 49
2019-02-15 11:00:00 14.2 15 Sudeste 28 Sudeste 0 -- -- 52
2019-02-15 10:00:00 12.8 15 Sudeste 33 Sudeste 0 -- -- 53
2019-02-15 09:00:00 10.5 20 Sudeste 32 Sudeste 0 -- -- 57
2019-02-15 08:00:00 10.9 20 Sudeste 34 Sudeste 0 -- -- 54
2019-02-15 07:00:00 10.8 20 Sudeste 39 Sudeste 0 -- -- 54
2019-02-15 06:00:00 10.3 24 Sudeste 36 Sudeste 0 -- -- 57
2019-02-15 05:00:00 10.2 21 Sudeste 37 Sudeste 0 -- -- 56
2019-02-15 04:00:00 10.2 25 Sudeste 38 Sudeste 0 -- -- 56
2019-02-15 03:00:00 11.3 25 Sur 40 Sudeste 0 -- -- 52
2019-02-15 02:00:00 11.7 24 Sudeste 38 Sudeste 0 -- -- 51
2019-02-15 01:00:00 12.4 25 Sudeste 39 Sur 0 -- -- 50
2019-02-15 00:00:00 12.4 18 Sudeste 33 Sudeste 0 -- -- 52
2019-02-14 23:00:00 13 18 Sudeste 31 Sudeste 0 -- -- 51
2019-02-14 22:00:00 13.4 19 Sur 37 Sur 0 -- -- 50
2019-02-14 21:00:00 13.2 20 Sudeste 32 Sudeste 0 -- -- 51
2019-02-14 20:00:00 13.7 19 Sudeste 31 Sudeste 0 -- -- 50
2019-02-14 19:00:00 14.9 19 Sudeste 28 Sudeste 0 -- -- 47
2019-02-14 18:00:00 16.6 17 Sur 28 Sudeste 0 -- -- 44
2019-02-14 17:00:00 17.6 16 Sur 36 Sudeste 0 -- -- 40
2019-02-14 16:00:00 18.9 15 Sur 34 Sur 0 -- -- 39
2019-02-14 15:00:00 18.1 18 Sur 35 Sudeste 0 -- -- 41
2019-02-14 14:00:00 17.3 19 Sur 36 Sudeste 0 -- -- 43
2019-02-14 13:00:00 16.2 22 Sudeste 38 Sudeste 0 -- -- 41
2019-02-14 12:00:00 15.9 13 Sur 34 Sur 0 -- -- 41
2019-02-14 11:00:00 15 6 Noroeste 17 Este 0 -- -- 46
2019-02-14 10:00:00 12.4 8 Sudeste 21 Sudeste 0 -- -- 48
2019-02-14 09:00:00 8.8 8 Sudeste 20 Sudeste 0 -- -- 57
2019-02-14 08:00:00 7.2 6 Sudeste 27 Sudeste 0 -- -- 62
2019-02-14 07:00:00 8.9 18 Sudeste 31 Sudeste 0 -- -- 56
2019-02-14 06:00:00 9.8 18 Sur 28 Sudeste 0 -- -- 55
2019-02-14 05:00:00 9.2 17 Sudeste 27 Sudeste 0 -- -- 58
2019-02-14 04:00:00 8.3 13 Sudeste 21 Sudeste 0 -- -- 61
2019-02-14 03:00:00 7.8 12 Sudeste 23 Sudeste 0 -- -- 61
2019-02-14 02:00:00 6.8 13 Sudeste 23 Sudeste 0 -- -- 70
2019-02-14 01:00:00 6.5 9 Sudeste 16 Este 0 -- -- 82
2019-02-14 00:00:00 7.6 13 Este 16 Este 0 -- -- 79
2019-02-13 23:00:00 8.1 11 Sudeste 15 Sudeste 0 -- -- 78
2019-02-13 22:00:00 9 9 Este 12 Este 0 -- -- 75
2019-02-13 21:00:00 9.7 8 Este 9 Este 0 -- -- 73
2019-02-13 20:00:00 10.8 0 Calma 2 Este 0 -- -- 68
2019-02-13 19:00:00 12.1 0 Calma 9 Noroeste 0 -- -- 65
2019-02-13 18:00:00 14.3 4 Noroeste 10 Noroeste 0 -- -- 58
2019-02-13 17:00:00 14.9 6 Noroeste 13 Noroeste 0 -- -- 53
2019-02-13 16:00:00 16.1 8 Noroeste 18 Noroeste 0 -- -- 50
2019-02-13 15:00:00 15.7 9 Noroeste 17 Noroeste 0 -- -- 56
2019-02-13 14:00:00 15.6 11 Noroeste 19 Noroeste 0 -- -- 52
2019-02-13 13:00:00 15.8 8 Sudeste 16 Sudeste 0 -- -- 48
2019-02-13 12:00:00 14.4 10 Sudeste 20 Sudeste 0 -- -- 53
2019-02-13 11:00:00 11.6 12 Sudeste 20 Este 0 -- -- 58
2019-02-13 10:00:00 8.9 13 Sudeste 22 Sudeste 0 -- -- 60
2019-02-13 09:00:00 6.1 14 Sudeste 23 Sudeste 0 -- -- 69
2019-02-13 08:00:00 5.8 13 Sudeste 21 Sudeste 0 -- -- 70
2019-02-13 07:00:00 5.3 12 Este 20 Sudeste 0 -- -- 72
2019-02-13 06:00:00 6.6 12 Sudeste 25 Sudeste 0 -- -- 68
2019-02-13 05:00:00 6.2 15 Sudeste 22 Sudeste 0 -- -- 71
2019-02-13 04:00:00 5.7 7 Este 15 Sudeste 0 -- -- 77
2019-02-13 03:00:00 6.5 7 Sudeste 18 Este 0 -- -- 75
2019-02-13 02:00:00 6.7 6 Sudeste 16 Este 0 -- -- 74
2019-02-13 01:00:00 7 9 Este 14 Este 0 -- -- 73
2019-02-13 00:00:00 6.6 9 Este 13 Sudeste 0 -- -- 76
2019-02-12 23:00:00 8.2 3 Sudeste 14 Sudeste 0 -- -- 70
2019-02-12 22:00:00 8.8 9 Sudeste 14 Este 0 -- -- 74
2019-02-12 21:00:00 10.3 5 Sudeste 10 Sudeste 0 -- -- 70
2019-02-12 20:00:00 10.8 0 Calma 3 Norte 0 -- -- 69
2019-02-12 19:00:00 12 2 Noroeste 5 Noroeste 0 -- -- 70
2019-02-12 18:00:00 14.2 4 Noroeste 10 Noroeste 0 -- -- 57
2019-02-12 17:00:00 15 6 Noroeste 17 Noroeste 0 -- -- 57
2019-02-12 16:00:00 16.6 9 Noroeste 16 Noroeste 0 -- -- 50
2019-02-12 15:00:00 17.6 5 Sur 18 Sur 0 -- -- 40
2019-02-12 14:00:00 15.4 12 Sur 21 Sudeste 0 -- -- 41
2019-02-12 13:00:00 13.7 13 Sur 19 Sur 0 -- -- 51
2019-02-12 12:00:00 11.8 11 Sudeste 21 Este 0 -- -- 61
2019-02-12 11:00:00 9.2 12 Sudeste 22 Este 0 -- -- 64
2019-02-12 10:00:00 7.2 14 Sudeste 29 Sudeste 0 -- -- 65
2019-02-12 09:00:00 5.8 16 Sudeste 27 Sudeste 0 -- -- 69
2019-02-12 08:00:00 5.5 17 Sudeste 25 Sudeste 0 -- -- 72
2019-02-12 07:00:00 6.1 15 Sudeste 25 Sudeste 0 -- -- 70
2019-02-12 06:00:00 6.3 11 Sudeste 21 Sudeste 0 -- -- 71
2019-02-12 05:00:00 6 12 Sudeste 21 Sudeste 0 -- -- 75
2019-02-12 04:00:00 6.7 13 Sudeste 22 Sudeste 0 -- -- 73
2019-02-12 03:00:00 6.5 12 Sudeste 21 Sudeste 0 -- -- 74
2019-02-12 02:00:00 6 11 Sudeste 26 Sudeste 0 -- -- 76
2019-02-12 01:00:00 5.5 17 Sudeste 24 Sudeste 0 -- -- 78
2019-02-12 00:00:00 5 14 Sudeste 20 Este 0 -- -- 82
2019-02-11 23:00:00 6.2 8 Sudeste 14 Sudeste 0 -- -- 79
2019-02-11 22:00:00 6.8 6 Sudeste 15 Sudeste 0 -- -- 76
2019-02-11 21:00:00 7 2 Sur 8 Este 0 -- -- 75
2019-02-11 20:00:00 7.6 3 Este 5 Este 0 -- -- 72
2019-02-11 19:00:00 9.6 4 Este 9 Nordeste 0 -- -- 65
2019-02-11 18:00:00 11.4 3 Nordeste 12 Este 0 -- -- 58
2019-02-11 17:00:00 12 6 Este 14 Nordeste 0 -- -- 55
2019-02-11 16:00:00 13.4 7 Este 17 Este 0 -- -- 51
2019-02-11 15:00:00 12.7 6 Norte 16 Noroeste 0 -- -- 57
2019-02-11 14:00:00 11.5 5 Noroeste 13 Noroeste 0 -- -- 66
2019-02-11 13:00:00 10.9 4 Noroeste 11 Sudeste 0 -- -- 65
2019-02-11 12:00:00 11.1 3 Sudeste 13 Este 0 -- -- 61
2019-02-11 11:00:00 9.2 6 Sudeste 13 Sudeste 0 -- -- 70
2019-02-11 10:00:00 5.7 7 Sudeste 14 Este 0 -- -- 81
2019-02-11 09:00:00 3.1 10 Sudeste 14 Sudeste 0 -- -- 91
2019-02-11 08:00:00 3.1 8 Sudeste 13 Sudeste 0 -- -- 93
2019-02-11 07:00:00 2.4 9 Este 12 Este 0 -- -- 95
2019-02-11 06:00:00 2.6 2 Este 9 Este 0 -- -- 93
2019-02-11 05:00:00 3.7 6 Este 13 Este 0 -- -- 92
2019-02-11 04:00:00 3.4 6 Este 12 Nordeste 0 -- -- 93
2019-02-11 03:00:00 3.8 4 Este 9 Este 0 -- -- 92
2019-02-11 02:00:00 4.3 4 Este 9 Este 0 -- -- 90
2019-02-11 01:00:00 4.4 4 Este 6 Este 0 -- -- 90
2019-02-11 00:00:00 4 3 Este 5 Este 0 -- -- 91
2019-02-10 23:00:00 4 0 Calma 3 Nordeste 0 -- -- 90
2019-02-10 22:00:00 4.5 0 Calma 3 Nordeste 0 -- -- 90
2019-02-10 21:00:00 5 0 Calma 5 Noroeste 0 -- -- 89
2019-02-10 20:00:00 6.2 2 Noroeste 13 Noroeste 0 -- -- 84
2019-02-10 19:00:00 7.7 6 Noroeste 14 Noroeste 0 -- -- 77
2019-02-10 18:00:00 8.9 11 Noroeste 18 Noroeste 0 -- -- 72
2019-02-10 17:00:00 9.7 7 Noroeste 28 Noroeste 0 -- -- 75
2019-02-10 16:00:00 11.4 10 Noroeste 24 Noroeste 0 -- -- 68
2019-02-10 15:00:00 9.6 5 Noroeste 26 Noroeste 0 -- -- 77
2019-02-10 14:00:00 9.6 8 Noroeste 23 Noroeste 0 -- -- 82
2019-02-10 13:00:00 10.9 7 Noroeste 21 Noroeste 0 -- -- 78
2019-02-10 12:00:00 9.4 10 Noroeste 20 Noroeste 0 -- -- 83
2019-02-10 11:00:00 9.1 9 Noroeste 15 Noroeste 0 -- -- 89
2019-02-10 10:00:00 7.3 4 Oeste 10 Oeste 0 -- -- 99
2019-02-10 09:00:00 7.5 9 Noroeste 30 Noroeste 1.8 -- -- 99
2019-02-10 08:00:00 9.3 16 Noroeste 39 Noroeste 2.6 -- -- 98
2019-02-10 07:00:00 10.9 10 Oeste 35 Sur 0.6 -- -- 97
2019-02-10 06:00:00 10.1 12 Sudoeste 34 Sudoeste 2.4 -- -- 96
2019-02-10 05:00:00 10.1 11 Sudoeste 36 Oeste 2.8 -- -- 95
2019-02-10 04:00:00 10.1 8 Sudoeste 40 Sur 2.2 -- -- 95
2019-02-10 03:00:00 10.5 8 Sudoeste 42 Noroeste 0.4 -- -- 94
2019-02-10 02:00:00 10.5 9 Sudoeste 40 Noroeste 0.6 -- -- 94
2019-02-10 01:00:00 10.1 10 Oeste 32 Sur 1.2 -- -- 96
2019-02-10 00:00:00 10.3 13 Sudoeste 40 Sudoeste 0.2 -- -- 91
2019-02-09 23:00:00 9.6 7 Sudoeste 34 Sur 0.6 -- -- 96
2019-02-09 22:00:00 9.5 8 Sudoeste 31 Sudoeste 0.4 -- -- 96
2019-02-09 21:00:00 9.2 7 Sur 36 Sudeste 0.6 -- -- 96
2019-02-09 20:00:00 9 8 Sur 32 Sudeste 0.6 -- -- 95
2019-02-09 19:00:00 9 12 Sur 38 Sur 0 -- -- 92
2019-02-09 18:00:00 9.2 9 Sudoeste 30 Sudoeste 0 -- -- 92
2019-02-09 17:00:00 10.3 8 Sur 27 Sur 0.4 -- -- 90
2019-02-09 16:00:00 9.7 6 Sur 37 Sudeste 0 -- -- 90
2019-02-09 15:00:00 10.1 10 Sur 29 Sudoeste 0 -- -- 83
2019-02-09 14:00:00 9.5 7 Sur 19 Sudoeste 0.2 -- -- 90
2019-02-09 13:00:00 10.9 9 Sur 32 Sur 0 -- -- 82
2019-02-09 12:00:00 10.1 8 Sur 25 Sur 0 -- -- 87
2019-02-09 11:00:00 10.4 6 Sur 25 Sur 0 -- -- 79
2019-02-09 10:00:00 9.9 9 Sur 24 Sur 0 -- -- 76
2019-02-09 09:00:00 9.2 14 Sur 28 Sur 0 -- -- 79
2019-02-09 08:00:00 8.8 12 Sudeste 24 Sudeste 0 -- -- 85
2019-02-09 07:00:00 9.1 8 Sudeste 20 Sudeste 0 -- -- 84
2019-02-09 06:00:00 9.3 9 Sur 22 Sudeste 0 -- -- 84
2019-02-09 05:00:00 9.3 5 Sur 20 Sur 0 -- -- 86
2019-02-09 04:00:00 9.3 7 Sur 21 Sur 0 -- -- 88
2019-02-09 03:00:00 9.1 6 Sur 23 Sur 0 -- -- 89
2019-02-09 02:00:00 9.2 5 Sur 15 Noroeste 0 -- -- 90
2019-02-09 01:00:00 9.2 5 Sudoeste 21 Noroeste 0 -- -- 90
2019-02-09 00:00:00 8.9 3 Sur 19 Sur 0 -- -- 93
2019-02-08 23:00:00 8.9 7 Sur 18 Sur 0 -- -- 92
2019-02-08 22:00:00 8.5 3 Sudoeste 23 Noroeste 0 -- -- 94
2019-02-08 21:00:00 8.7 2 Norte 17 Oeste 0.2 -- -- 95
2019-02-08 20:00:00 8.7 4 Oeste 24 Oeste 0 -- -- 94
2019-02-08 19:00:00 8.8 5 Oeste 21 Oeste 0 -- -- 96
2019-02-08 18:00:00 8.4 4 Sur 17 Sur 0.8 -- -- 96
2019-02-08 17:00:00 8.7 5 Sur 18 Sur 0.6 -- -- 94
2019-02-08 16:00:00 9.5 4 Sudoeste 28 Sur 0 -- -- 90
2019-02-08 15:00:00 10 9 Sur 32 Sudoeste 0 -- -- 86
2019-02-08 14:00:00 12 7 Sudoeste 44 Sudoeste 0 -- -- 74
2019-02-08 13:00:00 11.2 8 Sudoeste 25 Sur 0 -- -- 73
2019-02-08 12:00:00 10.4 6 Sur 19 Sur 0 -- -- 74
2019-02-08 11:00:00 9.2 6 Sur 22 Sudoeste 0 -- -- 81
2019-02-08 10:00:00 7.7 3 Sur 18 Sur 0 -- -- 85
2019-02-08 09:00:00 7.1 3 Sur 28 Sur 0 -- -- 85
2019-02-08 08:00:00 6.8 7 Sur 24 Sur 0 -- -- 86
2019-02-08 07:00:00 6.2 6 Sur 26 Sur 0 -- -- 87
2019-02-08 06:00:00 5.3 6 Sur 20 Sur 0 -- -- 88
2019-02-08 05:00:00 5.6 4 Sur 15 Sur 0 -- -- 89
2019-02-08 04:00:00 5.3 2 Sudoeste 12 Sudeste 0 -- -- 89
2019-02-08 03:00:00 3.8 3 Sudeste 6 Sudeste 0 -- -- 86
2019-02-08 02:00:00 3.5 0 Calma 7 Sudeste 0 -- -- 89
2019-02-08 01:00:00 4.7 3 Sudeste 12 Sudeste 0 -- -- 90
2019-02-08 00:00:00 4.8 3 Sur 7 Sur 0 -- -- 91
2019-02-07 23:00:00 4.7 2 Sudeste 4 Sur 0 -- -- 94
2019-02-07 22:00:00 4.8 0 Calma 3 Oeste 0 -- -- 93
2019-02-07 21:00:00 5.7 0 Calma 4 Noroeste 0 -- -- 91
2019-02-07 20:00:00 6.5 0 Calma 6 Oeste 0 -- -- 88
2019-02-07 19:00:00 7.9 0 Calma 10 Oeste 0 -- -- 80
2019-02-07 18:00:00 9.8 3 Oeste 13 Oeste 0 -- -- 72
2019-02-07 17:00:00 11 4 Oeste 16 Noroeste 0 -- -- 67
2019-02-07 16:00:00 12.5 2 Sudoeste 12 Noroeste 0 -- -- 63
2019-02-07 15:00:00 11 4 Noroeste 15 Noroeste 0 -- -- 69
2019-02-07 14:00:00 11.2 7 Noroeste 12 Noroeste 0 -- -- 72
2019-02-07 13:00:00 10.6 3 Noroeste 9 Noroeste 0 -- -- 70
2019-02-07 12:00:00 9.1 3 Noroeste 9 Norte 0 -- -- 85
2019-02-07 11:00:00 7.6 2 Noroeste 12 Noroeste 0 -- -- 98
2019-02-07 10:00:00 7.5 7 Noroeste 11 Noroeste 0 -- -- 99
2019-02-07 09:00:00 7.3 4 Noroeste 8 Noroeste 0 -- -- 99
2019-02-07 08:00:00 7.2 2 Noroeste 14 Noroeste 0.2 -- -- 98
2019-02-07 07:00:00 7.3 4 Noroeste 13 Noroeste 0.2 -- -- 97
2019-02-07 06:00:00 7.1 2 Noroeste 7 Oeste 0 -- -- 96
2019-02-07 05:00:00 6.8 2 Noroeste 8 Sur 0 -- -- 98
2019-02-07 04:00:00 7.1 0 Calma 6 Oeste 0 -- -- 99
2019-02-07 03:00:00 7.5 3 Noroeste 8 Noroeste 0 -- -- 99
2019-02-07 02:00:00 7.5 6 Noroeste 16 Noroeste 1 -- -- 98
2019-02-07 01:00:00 8.4 3 Sur 13 Sudoeste 0 -- -- 94
2019-02-07 00:00:00 8.5 2 Sudoeste 13 Sudeste 0 -- -- 91
2019-02-06 23:00:00 8.4 2 Sudoeste 15 Noroeste 0 -- -- 89
2019-02-06 22:00:00 8.1 4 Sur 16 Noroeste 0 -- -- 90
2019-02-06 21:00:00 8.5 3 Sur 14 Sur 0 -- -- 87
2019-02-06 20:00:00 8.9 4 Sudoeste 13 Oeste 0 -- -- 82
2019-02-06 19:00:00 9.2 4 Sudoeste 20 Noroeste 0 -- -- 82
2019-02-06 18:00:00 10.2 5 Oeste 20 Oeste 0 -- -- 78
2019-02-06 17:00:00 10.9 5 Sudoeste 19 Sudoeste 0 -- -- 72
2019-02-06 16:00:00 11.7 5 Oeste 19 Sur 0 -- -- 70
2019-02-06 15:00:00 12.8 4 Oeste 20 Oeste 0 -- -- 70
2019-02-06 14:00:00 12.3 5 Sudoeste 22 Oeste 0 -- -- 72
2019-02-06 13:00:00 12.1 5 Sudoeste 18 Oeste 0 -- -- 71
2019-02-06 12:00:00 11.4 4 Sudoeste 18 Sur 0 -- -- 79
2019-02-06 11:00:00 9.2 6 Sudoeste 13 Sur 0 -- -- 87
2019-02-06 10:00:00 8.4 3 Sur 9 Sur 0 -- -- 91
2019-02-06 09:00:00 6.6 5 Sudeste 8 Sudeste 0 -- -- 100
2019-02-06 08:00:00 6.2 3 Sur 5 Sur 0 -- -- 100
2019-02-06 07:00:00 4.7 2 Este 8 Nordeste 0 -- -- 100
2019-02-06 06:00:00 5.4 3 Sudeste 12 Sudeste 0 -- -- 99
2019-02-06 05:00:00 6.2 5 Sudeste 17 Sudeste 0 -- -- 99
2019-02-06 04:00:00 6.4 10 Sudeste 17 Sudeste 0 -- -- 97
2019-02-06 03:00:00 7.7 5 Sudeste 12 Sudeste 0 -- -- 94
2019-02-06 02:00:00 8 4 Sudeste 8 Sur 0 -- -- 92
2019-02-06 01:00:00 8.6 3 Sur 8 Sur 0 -- -- 91
2019-02-06 00:00:00 8.9 3 Sur 6 Sudeste 0 -- -- 91
2019-02-05 23:00:00 9 0 Calma 4 Sur 0 -- -- 92
2019-02-05 22:00:00 9 0 Calma 5 Sudeste 0 -- -- 93
2019-02-05 21:00:00 8.8 0 Calma 4 Sudeste 0 -- -- 94
2019-02-05 20:00:00 8.9 0 Calma 6 Nordeste 0 -- -- 94
2019-02-05 19:00:00 9.3 3 Noroeste 14 Noroeste 0 -- -- 92
2019-02-05 18:00:00 11.6 9 Noroeste 15 Noroeste 0 -- -- 81
2019-02-05 17:00:00 12.3 7 Noroeste 14 Noroeste 0 -- -- 79
2019-02-05 16:00:00 13.8 3 Noroeste 13 Oeste 0 -- -- 70
2019-02-05 15:00:00 13.9 3 Noroeste 12 Sudeste 0 -- -- 71
2019-02-05 14:00:00 14.9 4 Noroeste 12 Sur 0 -- -- 67
2019-02-05 13:00:00 13.1 3 Norte 7 Este 0 -- -- 78
2019-02-05 12:00:00 11.8 0 Calma 8 Sudeste 0 -- -- 79
2019-02-05 11:00:00 10 5 Sudeste 12 Sudeste 0 -- -- 86
2019-02-05 10:00:00 11 6 Sudeste 12 Sudeste 0 -- -- 80
2019-02-05 09:00:00 8.9 3 Sur 8 Sur 0 -- -- 86
2019-02-05 08:00:00 8.6 4 Sur 12 Sudeste 0 -- -- 91
2019-02-05 07:00:00 8.4 4 Sudeste 8 Sudeste 0 -- -- 92
2019-02-05 06:00:00 8.4 3 Sudeste 10 Sudeste 0 -- -- 93
2019-02-05 05:00:00 8.4 4 Sudeste 9 Sur 0 -- -- 92
2019-02-05 04:00:00 8 3 Este 8 Este 0 -- -- 94
2019-02-05 03:00:00 8.7 4 Sudeste 10 Sur 0 -- -- 92
2019-02-05 02:00:00 8.6 3 Sudeste 13 Sudeste 0 -- -- 93
2019-02-05 01:00:00 8.4 4 Sudeste 10 Sur 0.2 -- -- 96
2019-02-05 00:00:00 8.5 0 Calma 6 Sudeste 0 -- -- 94
2019-02-04 23:00:00 8.4 0 Calma 12 Noroeste 0 -- -- 93
2019-02-04 22:00:00 7.9 3 Sur 12 Noroeste 0 -- -- 96
2019-02-04 21:00:00 7.3 2 Sudoeste 9 Sur 0 -- -- 95
2019-02-04 20:00:00 8.2 2 Sudoeste 10 Sudoeste 0 -- -- 94
2019-02-04 19:00:00 8.5 4 Sur 14 Oeste 0 -- -- 92
2019-02-04 18:00:00 8.9 2 Sur 18 Noroeste 0 -- -- 89
2019-02-04 17:00:00 9.1 3 Sudoeste 12 Oeste 0 -- -- 88
2019-02-04 16:00:00 9.6 4 Sudoeste 18 Oeste 0 -- -- 85
2019-02-04 15:00:00 9.9 5 Sur 17 Oeste 0 -- -- 83
2019-02-04 14:00:00 9.5 6 Sudoeste 17 Sur 0 -- -- 86
2019-02-04 13:00:00 9.5 4 Sudoeste 20 Este 0 -- -- 82
2019-02-04 12:00:00 8.7 5 Oeste 21 Oeste 0 -- -- 84
2019-02-04 11:00:00 8.2 5 Sudeste 16 Sur 0 -- -- 83
2019-02-04 10:00:00 6.1 4 Sudeste 15 Sudeste 0 -- -- 77
2019-02-04 09:00:00 5.3 9 Sudeste 14 Sudeste 0 -- -- 76
2019-02-04 08:00:00 5 8 Este 15 Este 0 -- -- 73
2019-02-04 07:00:00 5.2 5 Sudeste 15 Sudeste 0 -- -- 66
2019-02-04 06:00:00 4.6 9 Sudeste 15 Sudeste 0 -- -- 61
2019-02-04 05:00:00 3.9 6 Este 10 Sudeste 0 -- -- 68
2019-02-04 04:00:00 3.9 0 Calma 10 Sudeste 0 -- -- 64
2019-02-04 03:00:00 2.6 6 Este 14 Este 0 -- -- 72
2019-02-04 02:00:00 2.6 8 Este 18 Este 0 -- -- 69
2019-02-04 01:00:00 3.2 6 Este 14 Sudeste 0 -- -- 68
2019-02-04 00:00:00 3 4 Este 13 Este 0 -- -- 73
2019-02-03 23:00:00 3.3 5 Este 9 Sudeste 0 -- -- 75
2019-02-03 22:00:00 4.4 7 Sudeste 10 Sudeste 0 -- -- 77
2019-02-03 21:00:00 5.3 0 Calma 7 Sudeste 0 -- -- 82
2019-02-03 20:00:00 5.7 4 Sudeste 9 Este 0 -- -- 77
2019-02-03 19:00:00 6.6 0 Calma 9 Oeste 0 -- -- 76
2019-02-03 18:00:00 7.9 4 Noroeste 10 Norte 0 -- -- 69
2019-02-03 17:00:00 8.2 5 Noroeste 12 Sudeste 0 -- -- 62
2019-02-03 16:00:00 9.4 8 Sur 13 Sudeste 0 -- -- 50
2019-02-03 15:00:00 10.1 4 Sur 13 Sur 0 -- -- 47
2019-02-03 14:00:00 9.2 5 Sur 15 Sur 0 -- -- 55
2019-02-03 13:00:00 7.7 9 Sur 15 Sudeste 0 -- -- 64
2019-02-03 12:00:00 6.1 7 Sudeste 11 Sudeste 0 -- -- 81
2019-02-03 11:00:00 2.4 4 Este 15 Sudeste 0 -- -- 90
2019-02-03 10:00:00 0.9 10 Sudeste 13 Sudeste 0 -- -- 96
2019-02-03 09:00:00 -0.9 5 Este 10 Este 0 -- -- 99
2019-02-03 08:00:00 -1.7 7 Este 10 Este 0 -- -- 99
2019-02-03 07:00:00 -1.6 4 Este 13 Este 0 -- -- 99
2019-02-03 06:00:00 -1.4 7 Este 12 Este 0 -- -- 100
2019-02-03 05:00:00 -1.4 8 Este 11 Este 0 -- -- 99
2019-02-03 04:00:00 -0.8 8 Este 10 Este 0 -- -- 99
2019-02-03 03:00:00 0.5 2 Este 9 Este 0 -- -- 98
2019-02-03 02:00:00 0.9 0 Calma 3 Este 0 -- -- 98
2019-02-03 01:00:00 1.3 0 Calma 3 Este 0.2 -- -- 99
2019-02-03 00:00:00 1.5 0 Calma 2 Norte 0 -- -- 99
2019-02-02 23:00:00 1.7 0 Calma 4 Oeste 0 -- -- 98
2019-02-02 22:00:00 1.9 0 Calma 3 Sudeste 0 -- -- 98
2019-02-02 21:00:00 2.5 0 Calma 30 Noroeste 0.4 -- -- 98
2019-02-02 20:00:00 2.9 6 Noroeste 29 Noroeste 0.2 -- -- 96
2019-02-02 19:00:00 2.7 0 Calma 6 Noroeste 0 -- -- 97
2019-02-02 18:00:00 3.6 0 Calma 22 Noroeste 0.4 -- -- 93
2019-02-02 17:00:00 5.4 5 Noroeste 10 Noroeste 0.6 -- -- 92
2019-02-02 16:00:00 3.5 2 Oeste 19 Noroeste 1.4 -- -- 92
2019-02-02 15:00:00 6.9 3 Oeste 15 Noroeste 0 -- -- 81
2019-02-02 14:00:00 6.5 3 Este 22 Norte 0.2 -- -- 83
2019-02-02 13:00:00 6.6 5 Norte 14 Noroeste 0.2 -- -- 75
2019-02-02 12:00:00 6.7 5 Noroeste 12 Norte 0 -- -- 79
2019-02-02 11:00:00 4.4 3 Noroeste 5 Oeste 0.2 -- -- 86
2019-02-02 10:00:00 3.2 2 Noroeste 4 Norte 0.2 -- -- 95
2019-02-02 09:00:00 0.7 0 Calma 12 Este 0.4 -- -- 99
2019-02-02 08:00:00 0.5 2 Norte 5 Noroeste 0 -- -- 99
2019-02-02 07:00:00 0.8 2 Noroeste 26 Noroeste 0.6 -- -- 98
2019-02-02 06:00:00 0.9 3 Noroeste 15 Noroeste 1.6 -- -- 99
2019-02-02 05:00:00 2.1 0 Calma 22 Noroeste 0 -- -- 98
2019-02-02 04:00:00 2.2 4 Noroeste 18 Noroeste 0.2 -- -- 99
2019-02-02 03:00:00 2.1 5 Noroeste 25 Noroeste 0.6 -- -- 97
2019-02-02 02:00:00 1.9 6 Noroeste 39 Noroeste 0.4 -- -- 98
2019-02-02 01:00:00 3 23 Noroeste 54 Noroeste 0.4 -- -- 90
2019-02-02 00:00:00 3.5 18 Noroeste 37 Noroeste 0 -- -- 86
2019-02-01 23:00:00 2.6 7 Noroeste 31 Noroeste 0.4 -- -- 94
2019-02-01 22:00:00 4 21 Noroeste 37 Norte 0 -- -- 89
2019-02-01 21:00:00 4.2 15 Noroeste 39 Noroeste 0.4 -- -- 96
2019-02-01 20:00:00 4.6 9 Noroeste 36 Noroeste 0.2 -- -- 95
2019-02-01 19:00:00 5.1 7 Noroeste 29 Noroeste 0 -- -- 91
2019-02-01 18:00:00 5.8 11 Noroeste 51 Noroeste 0 -- -- 92
2019-02-01 17:00:00 5.5 20 Noroeste 41 Noroeste 1.2 -- -- 97
2019-02-01 16:00:00 4.5 14 Noroeste 50 Noroeste 1.4 -- -- 98
2019-02-01 15:00:00 4.1 18 Noroeste 42 Noroeste 1 -- -- 96
2019-02-01 14:00:00 4 15 Noroeste 32 Noroeste 1.2 -- -- 96
2019-02-01 13:00:00 3.6 16 Noroeste 35 Norte 0.8 -- -- 96
2019-02-01 12:00:00 3.3 11 Noroeste 40 Oeste 1 -- -- 98
2019-02-01 11:00:00 2.7 12 Noroeste 55 Noroeste 1.8 -- -- 98
2019-02-01 10:00:00 3.8 6 Noroeste 33 Oeste 1.6 -- -- 97
2019-02-01 09:00:00 3.6 17 Noroeste 41 Noroeste 2.4 -- -- 94
2019-02-01 08:00:00 4.1 20 Noroeste 52 Noroeste 5.2 -- -- 99
2019-02-01 07:00:00 4.6 9 Oeste 33 Noroeste 0.4 -- -- 94
2019-02-01 06:00:00 4.4 6 Oeste 36 Norte 0 -- -- 90
2019-02-01 05:00:00 4.8 16 Noroeste 45 Oeste 0.4 -- -- 90
2019-02-01 04:00:00 3.8 23 Noroeste 51 Sudoeste 3.6 -- -- 95
2019-02-01 03:00:00 5.6 8 Oeste 36 Oeste 0.2 -- -- 91
2019-02-01 02:00:00 5.9 13 Oeste 47 Noroeste 1.2 -- -- 96
2019-02-01 01:00:00 5.6 5 Sudoeste 33 Noroeste 0.4 -- -- 96
2019-02-01 00:00:00 4.8 7 Oeste 38 Oeste 3 -- -- 99
2019-01-31 23:00:00 5.7 12 Noroeste 36 Oeste 1.6 -- -- 96
2019-01-31 22:00:00 6.6 12 Oeste 45 Noroeste 0.4 -- -- 91
2019-01-31 21:00:00 7 13 Noroeste 36 Oeste 0.6 -- -- 94
2019-01-31 20:00:00 7.6 12 Noroeste 36 Noroeste 0 -- -- 91
2019-01-31 19:00:00 7.7 14 Noroeste 38 Noroeste 0 -- -- 91
2019-01-31 18:00:00 8.1 14 Noroeste 39 Noroeste 0 -- -- 95
2019-01-31 17:00:00 8.9 10 Noroeste 35 Oeste 0.4 -- -- 98
2019-01-31 16:00:00 8.8 15 Noroeste 37 Noroeste 1.6 -- -- 99
2019-01-31 15:00:00 10.7 17 Noroeste 40 Oeste 3.6 -- -- 99
2019-01-31 14:00:00 11.5 12 Oeste 41 Oeste 2.6 -- -- 99
2019-01-31 13:00:00 11.7 11 Noroeste 33 Oeste 0.8 -- -- 99
2019-01-31 12:00:00 11.5 11 Oeste 36 Oeste 3.6 -- -- 99
2019-01-31 11:00:00 11.2 11 Noroeste 30 Oeste 2.4 -- -- 99
2019-01-31 10:00:00 11 14 Oeste 36 Oeste 2.4 -- -- 99
2019-01-31 09:00:00 10.9 12 Noroeste 32 Oeste 0.6 -- -- 99
2019-01-31 08:00:00 10.9 13 Noroeste 41 Oeste 0.6 -- -- 99
2019-01-31 07:00:00 10.9 15 Noroeste 39 Oeste 2.6 -- -- 99
2019-01-31 06:00:00 10.9 16 Noroeste 47 Norte 1.8 -- -- 100
2019-01-31 05:00:00 10.8 13 Oeste 37 Noroeste 1.8 -- -- 100
2019-01-31 04:00:00 10.7 13 Noroeste 45 Oeste 4.4 -- -- 99
2019-01-31 03:00:00 10.7 16 Noroeste 37 Oeste 2.8 -- -- 99
2019-01-31 02:00:00 10.8 15 Noroeste 34 Oeste 2.4 -- -- 100
2019-01-31 01:00:00 10.8 15 Noroeste 36 Oeste 4 -- -- 100
2019-01-31 00:00:00 10.8 15 Noroeste 37 Noroeste 3.6 -- -- 99
2019-01-30 23:00:00 10.9 13 Noroeste 36 Oeste 0.4 -- -- 99
2019-01-30 22:00:00 10.9 17 Noroeste 37 Oeste 3 -- -- 99
2019-01-30 21:00:00 10.9 15 Noroeste 34 Noroeste 0.8 -- -- 99
2019-01-30 20:00:00 10.6 11 Noroeste 31 Oeste 3.2 -- -- 99
2019-01-30 19:00:00 10.1 12 Noroeste 32 Noroeste 0.8 -- -- 97
2019-01-30 18:00:00 10.1 18 Noroeste 40 Oeste 2.4 -- -- 97
2019-01-30 17:00:00 8.9 7 Sudoeste 33 Sur 1.8 -- -- 95
2019-01-30 16:00:00 9.4 8 Sur 30 Sur 0 -- -- 91
2019-01-30 15:00:00 8.9 6 Sur 30 Sur 0 -- -- 90
2019-01-30 14:00:00 8.8 9 Sur 28 Sur 0 -- -- 89
2019-01-30 13:00:00 8.9 6 Sur 22 Noroeste 0 -- -- 88
2019-01-30 12:00:00 7.6 4 Sudoeste 27 Sur 0.2 -- -- 90
2019-01-30 11:00:00 6 3 Sudeste 12 Sudeste 0.4 -- -- 93
2019-01-30 10:00:00 5.5 5 Sur 14 Sur 0 -- -- 90
2019-01-30 09:00:00 4.9 2 Sur 14 Sur 0 -- -- 89
2019-01-30 08:00:00 4.3 3 Sudoeste 11 Sur 0 -- -- 89
2019-01-30 07:00:00 3.9 0 Calma 4 Noroeste 0 -- -- 89
2019-01-30 06:00:00 4 0 Calma 5 Sur 0 -- -- 87
2019-01-30 05:00:00 3.1 0 Calma 5 Oeste 0 -- -- 89
2019-01-30 04:00:00 4.1 0 Calma 5 Oeste 0 -- -- 87
2019-01-30 03:00:00 4 2 Noroeste 6 Oeste 0 -- -- 89
2019-01-30 02:00:00 3.8 0 Calma 3 Noroeste 0 -- -- 91
2019-01-30 01:00:00 4.1 0 Calma 6 Norte 0 -- -- 92
2019-01-30 00:00:00 4.6 2 Noroeste 7 Oeste 0 -- -- 95
2019-01-29 23:00:00 4.7 3 Noroeste 8 Oeste 0 -- -- 98
2019-01-29 22:00:00 4.8 3 Noroeste 10 Noroeste 0 -- -- 99
2019-01-29 21:00:00 4.7 2 Oeste 17 Noroeste 0.4 -- -- 98
2019-01-29 20:00:00 5.5 7 Noroeste 28 Oeste 0.2 -- -- 97
2019-01-29 19:00:00 5.7 3 Noroeste 17 Noroeste 0.4 -- -- 96
2019-01-29 18:00:00 6.6 8 Noroeste 36 Noroeste 0 -- -- 87
2019-01-29 17:00:00 7.7 13 Noroeste 26 Noroeste 0 -- -- 79
2019-01-29 16:00:00 7.6 17 Noroeste 38 Noroeste 0.2 -- -- 88
2019-01-29 15:00:00 8 21 Noroeste 41 Noroeste 0.4 -- -- 85
2019-01-29 14:00:00 8.4 12 Noroeste 45 Noroeste 0 -- -- 93
2019-01-29 13:00:00 9.6 23 Noroeste 45 Noroeste 5.6 -- -- 99
2019-01-29 12:00:00 9.5 18 Noroeste 48 Oeste 2.4 -- -- 98
2019-01-29 11:00:00 8.7 12 Oeste 33 Noroeste 1.6 -- -- 98
2019-01-29 10:00:00 8.1 10 Noroeste 32 Oeste 0.6 -- -- 98
2019-01-29 09:00:00 8 10 Noroeste 34 Oeste 0 -- -- 96
2019-01-29 08:00:00 7.8 15 Noroeste 30 Noroeste 0 -- -- 97
2019-01-29 07:00:00 7.8 10 Noroeste 39 Noroeste 0.2 -- -- 96
2019-01-29 06:00:00 7.4 9 Noroeste 22 Noroeste 0.6 -- -- 98
2019-01-29 05:00:00 7.2 5 Sur 17 Sur 0 -- -- 95
2019-01-29 04:00:00 6.8 3 Sudoeste 15 Noroeste 0 -- -- 95
2019-01-29 03:00:00 6.5 3 Oeste 13 Oeste 0 -- -- 97
2019-01-29 02:00:00 7 3 Oeste 18 Noroeste 0 -- -- 90
2019-01-29 01:00:00 6.9 4 Noroeste 14 Noroeste 0 -- -- 91
2019-01-29 00:00:00 6.8 4 Noroeste 12 Noroeste 0 -- -- 91
2019-01-28 23:00:00 6.6 0 Calma 4 Noroeste 0 -- -- 93
2019-01-28 22:00:00 6.7 3 Noroeste 4 Noroeste 0 -- -- 92
2019-01-28 21:00:00 6.4 0 Calma 4 Oeste 0 -- -- 94
2019-01-28 20:00:00 6.4 0 Calma 3 Nordeste 0 -- -- 95
2019-01-28 19:00:00 6.6 0 Calma 10 Noroeste 0 -- -- 94
2019-01-28 18:00:00 8 4 Noroeste 13 Noroeste 0 -- -- 91
2019-01-28 17:00:00 8.6 5 Noroeste 22 Noroeste 0 -- -- 89
2019-01-28 16:00:00 10.7 11 Noroeste 21 Noroeste 0 -- -- 81
2019-01-28 15:00:00 9.5 12 Noroeste 24 Noroeste 0 -- -- 87
2019-01-28 14:00:00 9.5 9 Noroeste 26 Noroeste 0.2 -- -- 98
2019-01-28 13:00:00 8.9 10 Noroeste 25 Noroeste 0.8 -- -- 100
2019-01-28 12:00:00 8.8 6 Noroeste 21 Noroeste 0 -- -- 99
2019-01-28 11:00:00 8.6 12 Noroeste 21 Noroeste 0 -- -- 100
2019-01-28 10:00:00 8.1 9 Noroeste 21 Noroeste 0.2 -- -- 100
2019-01-28 09:00:00 7.9 6 Noroeste 18 Noroeste 0.6 -- -- 100
2019-01-28 08:00:00 7.7 7 Noroeste 18 Oeste 0.6 -- -- 100
2019-01-28 07:00:00 7.4 5 Noroeste 19 Oeste 0.2 -- -- 100
2019-01-28 06:00:00 7.3 9 Noroeste 18 Noroeste 0 -- -- 100
2019-01-28 05:00:00 6.9 5 Noroeste 16 Oeste 0.2 -- -- 99
2019-01-28 04:00:00 6.8 7 Noroeste 17 Oeste 0 -- -- 99
2019-01-28 03:00:00 6.5 8 Noroeste 16 Oeste 0 -- -- 99
2019-01-28 02:00:00 6.3 7 Noroeste 17 Noroeste 0 -- -- 98
2019-01-28 01:00:00 6.2 5 Noroeste 19 Noroeste 0 -- -- 97
2019-01-28 00:00:00 5.9 4 Noroeste 11 Noroeste 0 -- -- 97
2019-01-27 23:00:00 5.9 5 Noroeste 17 Noroeste 0 -- -- 95
2019-01-27 22:00:00 6.2 4 Noroeste 9 Noroeste 0 -- -- 88
2019-01-27 21:00:00 5.6 3 Noroeste 7 Oeste 0 -- -- 88
2019-01-27 20:00:00 5.6 4 Noroeste 7 Noroeste 0 -- -- 87
2019-01-27 19:00:00 6.4 5 Noroeste 21 Noroeste 0 -- -- 82
2019-01-27 18:00:00 7.8 10 Noroeste 22 Noroeste 0 -- -- 81
2019-01-27 17:00:00 8.7 9 Noroeste 23 Noroeste 0 -- -- 73
2019-01-27 16:00:00 8.2 9 Noroeste 27 Oeste 0 -- -- 77
2019-01-27 15:00:00 9.6 14 Noroeste 36 Noroeste 0 -- -- 69
2019-01-27 14:00:00 9.1 15 Noroeste 25 Noroeste 0 -- -- 86
2019-01-27 13:00:00 6.9 14 Noroeste 26 Noroeste 0.6 -- -- 94
2019-01-27 12:00:00 7.5 7 Noroeste 19 Noroeste 0 -- -- 91
2019-01-27 11:00:00 7.5 8 Noroeste 18 Noroeste 0.2 -- -- 90
2019-01-27 10:00:00 5.9 6 Noroeste 15 Noroeste 0 -- -- 96
2019-01-27 09:00:00 4.6 2 Noroeste 7 Noroeste 0 -- -- 96
2019-01-27 08:00:00 4.2 4 Noroeste 12 Noroeste 0 -- -- 96
2019-01-27 07:00:00 4.6 4 Noroeste 12 Noroeste 0.2 -- -- 96
2019-01-27 06:00:00 5.2 9 Noroeste 27 Noroeste 0 -- -- 93
2019-01-27 05:00:00 5.6 7 Noroeste 18 Noroeste 0 -- -- 96
2019-01-27 04:00:00 5.9 6 Noroeste 23 Noroeste 0.2 -- -- 99
2019-01-27 03:00:00 6.4 16 Noroeste 30 Noroeste 0.2 -- -- 99
2019-01-27 02:00:00 6.7 8 Noroeste 36 Noroeste 1 -- -- 99
2019-01-27 01:00:00 7.5 6 Noroeste 13 Noroeste 0.2 -- -- 99
2019-01-27 00:00:00 7.2 3 Noroeste 10 Oeste 0 -- -- 97
2019-01-26 23:00:00 6.9 0 Calma 15 Noroeste 0 -- -- 97
2019-01-26 22:00:00 7.1 4 Noroeste 15 Noroeste 0 -- -- 93
2019-01-26 21:00:00 6.4 3 Noroeste 12 Noroeste 0 -- -- 91
2019-01-26 20:00:00 7.8 4 Noroeste 9 Noroeste 0 -- -- 86
2019-01-26 19:00:00 8.4 0 Calma 10 Noroeste 0 -- -- 86
2019-01-26 18:00:00 10.5 5 Noroeste 14 Noroeste 0 -- -- 76
2019-01-26 17:00:00 10.9 3 Noroeste 11 Noroeste 0 -- -- 74
2019-01-26 16:00:00 10.7 4 Noroeste 16 Noroeste 0 -- -- 77
2019-01-26 15:00:00 10.9 4 Noroeste 19 Noroeste 0 -- -- 74
2019-01-26 14:00:00 12.5 5 Noroeste 15 Noroeste 0 -- -- 78
2019-01-26 13:00:00 11.3 3 Noroeste 8 Noroeste 0 -- -- 80
2019-01-26 12:00:00 10.3 0 Calma 20 Sudeste 0 -- -- 74
2019-01-26 11:00:00 7.3 13 Sudeste 19 Sudeste 0 -- -- 81
2019-01-26 10:00:00 2.4 4 Sudeste 6 Sudeste 0 -- -- 100
2019-01-26 09:00:00 0.8 0 Calma 7 Noroeste 0 -- -- 98
2019-01-26 08:00:00 1.7 0 Calma 18 Sudeste 0 -- -- 96
2019-01-26 07:00:00 4.1 8 Sudeste 17 Sudeste 0 -- -- 97
2019-01-26 06:00:00 2.4 3 Sudeste 20 Sudeste 0 -- -- 98
2019-01-26 05:00:00 4.2 10 Sudeste 24 Sudeste 0 -- -- 92
2019-01-26 04:00:00 2.9 6 Sudeste 15 Este 0 -- -- 95
2019-01-26 03:00:00 3.7 12 Sudeste 18 Sudeste 0 -- -- 94
2019-01-26 02:00:00 4.2 8 Sudeste 12 Este 0 -- -- 91
2019-01-26 01:00:00 4.6 0 Calma 11 Sudeste 0 -- -- 91
2019-01-26 00:00:00 5.9 5 Este 9 Este 0 -- -- 87
2019-01-25 23:00:00 5.3 0 Calma 18 Sudeste 0 -- -- 91
2019-01-25 22:00:00 6.4 8 Sudeste 15 Sudeste 0 -- -- 88
2019-01-25 21:00:00 7.7 5 Este 14 Este 0 -- -- 85
2019-01-25 20:00:00 7.2 3 Este 10 Este 0 -- -- 86
2019-01-25 19:00:00 7.9 3 Este 15 Este 0 -- -- 84
2019-01-25 18:00:00 9.4 5 Este 22 Este 0 -- -- 80
2019-01-25 17:00:00 10.5 8 Este 19 Este 0 -- -- 77
2019-01-25 16:00:00 11.1 6 Nordeste 22 Este 0 -- -- 76
2019-01-25 15:00:00 10.7 5 Este 18 Este 0 -- -- 79
2019-01-25 14:00:00 9.9 8 Este 17 Nordeste 0 -- -- 83
2019-01-25 13:00:00 9.2 6 Este 19 Este 0 -- -- 84
2019-01-25 12:00:00 8.7 5 Este 19 Nordeste 0 -- -- 88
2019-01-25 11:00:00 8.2 8 Este 22 Este 0 -- -- 91
2019-01-25 10:00:00 7.8 3 Este 15 Sudeste 0 -- -- 100
2019-01-25 09:00:00 7.1 3 Este 9 Este 0 -- -- 100
2019-01-25 08:00:00 7.3 0 Calma 8 Este 0 -- -- 100
2019-01-25 07:00:00 7.3 0 Calma 4 Nordeste 0 -- -- 100
2019-01-25 06:00:00 7.3 0 Calma 3 Este 0 -- -- 100
2019-01-25 05:00:00 7.4 0 Calma 5 Nordeste 0 -- -- 100
2019-01-25 04:00:00 7.4 0 Calma 6 Este 0 -- -- 100
2019-01-25 03:00:00 7.7 0 Calma 4 Nordeste 0 -- -- 100
2019-01-25 02:00:00 8 0 Calma 8 Nordeste 0 -- -- 100
2019-01-25 01:00:00 8 0 Calma 5 Norte 0 -- -- 100
2019-01-25 00:00:00 8.2 0 Calma 3 Norte 0 -- -- 100
2019-01-24 23:00:00 8.5 2 Noroeste 5 Noroeste 0 -- -- 100
2019-01-24 22:00:00 8.6 0 Calma 5 Noroeste 0 -- -- 100
2019-01-24 21:00:00 8.8 0 Calma 13 Noroeste 0.2 -- -- 100
2019-01-24 20:00:00 9 3 Noroeste 8 Norte 0 -- -- 100
2019-01-24 19:00:00 9.2 3 Noroeste 16 Norte 0 -- -- 100
2019-01-24 18:00:00 9.5 4 Noroeste 15 Noroeste 0.2 -- -- 100
2019-01-24 17:00:00 10 7 Noroeste 14 Noroeste 0 -- -- 100
2019-01-24 16:00:00 10 6 Noroeste 19 Noroeste 0.2 -- -- 100
2019-01-24 15:00:00 10.3 5 Noroeste 17 Noroeste 0.2 -- -- 100
2019-01-24 14:00:00 10 6 Noroeste 19 Noroeste 0 -- -- 100
2019-01-24 13:00:00 9.7 10 Noroeste 19 Noroeste 0.2 -- -- 100
2019-01-24 12:00:00 9.6 6 Noroeste 17 Noroeste 0.2 -- -- 100
2019-01-24 11:00:00 9.3 7 Noroeste 17 Norte 0 -- -- 100
2019-01-24 10:00:00 9 9 Noroeste 19 Noroeste 0.2 -- -- 100
2019-01-24 09:00:00 9 6 Noroeste 18 Oeste 0 -- -- 100
2019-01-24 08:00:00 9 9 Noroeste 23 Noroeste 0.2 -- -- 100
2019-01-24 07:00:00 9.2 10 Noroeste 24 Noroeste 0 -- -- 100
2019-01-24 06:00:00 9.4 9 Noroeste 21 Noroeste 0.4 -- -- 100
2019-01-24 05:00:00 9.5 11 Noroeste 26 Noroeste 0.2 -- -- 100
2019-01-24 04:00:00 9.5 12 Noroeste 19 Noroeste 0.4 -- -- 100
2019-01-24 03:00:00 9.4 10 Noroeste 23 Noroeste 0.2 -- -- 100
2019-01-24 02:00:00 9.4 11 Noroeste 27 Noroeste 0.4 -- -- 100
2019-01-24 01:00:00 9.5 12 Noroeste 22 Noroeste 0.4 -- -- 100
2019-01-24 00:00:00 9.4 8 Noroeste 19 Noroeste 0.2 -- -- 100
2019-01-23 23:00:00 9.2 5 Noroeste 18 Noroeste 0.2 -- -- 100
2019-01-23 22:00:00 9.2 10 Noroeste 26 Noroeste 0 -- -- 100
2019-01-23 21:00:00 9.2 15 Noroeste 27 Noroeste 0.2 -- -- 100
2019-01-23 20:00:00 9.3 11 Noroeste 26 Noroeste 0.6 -- -- 100
2019-01-23 19:00:00 9.5 13 Noroeste 31 Noroeste 0 -- -- 100
2019-01-23 18:00:00 9.7 14 Noroeste 35 Norte 0.2 -- -- 100
2019-01-23 17:00:00 9.9 13 Noroeste 32 Noroeste 0.4 -- -- 100
2019-01-23 16:00:00 10.1 15 Noroeste 33 Noroeste 0.6 -- -- 100
2019-01-23 15:00:00 10.2 13 Noroeste 30 Noroeste 0.4 -- -- 100
2019-01-23 14:00:00 9.9 15 Noroeste 28 Noroeste 0.4 -- -- 100
2019-01-23 13:00:00 9.9 12 Noroeste 35 Noroeste 0 -- -- 100
2019-01-23 12:00:00 9.2 14 Noroeste 33 Noroeste 0.2 -- -- 100
2019-01-23 11:00:00 8.6 14 Noroeste 31 Norte 1 -- -- 100
2019-01-23 10:00:00 8.4 8 Noroeste 28 Noroeste 0.6 -- -- 100
2019-01-23 09:00:00 8 15 Noroeste 33 Noroeste 0.8 -- -- 100
2019-01-23 08:00:00 8.2 18 Noroeste 40 Noroeste 1.2 -- -- 100
2019-01-23 07:00:00 8.1 12 Noroeste 33 Noroeste 1 -- -- 100
2019-01-23 06:00:00 7.9 13 Noroeste 29 Noroeste 1 -- -- 100
2019-01-23 05:00:00 7.8 12 Noroeste 31 Noroeste 0.6 -- -- 100
2019-01-23 04:00:00 7.5 12 Noroeste 30 Noroeste 0.2 -- -- 100
2019-01-23 03:00:00 7.2 12 Noroeste 29 Norte 0 -- -- 99
2019-01-23 02:00:00 7.3 13 Noroeste 31 Noroeste 0.2 -- -- 100
2019-01-23 01:00:00 7.2 11 Noroeste 28 Noroeste 1.4 -- -- 100
2019-01-23 00:00:00 6.9 9 Noroeste 32 Noroeste 0.6 -- -- 99
2019-01-22 23:00:00 6.8 10 Noroeste 30 Noroeste 1.2 -- -- 99
2019-01-22 22:00:00 6.7 9 Noroeste 22 Noroeste 0.6 -- -- 99
2019-01-22 21:00:00 6.5 9 Noroeste 24 Oeste 0 -- -- 99
2019-01-22 20:00:00 6.4 8 Noroeste 22 Noroeste 0 -- -- 99
2019-01-22 19:00:00 6.5 8 Noroeste 22 Noroeste 0.2 -- -- 98
2019-01-22 18:00:00 6.6 6 Noroeste 15 Noroeste 0 -- -- 98
2019-01-22 17:00:00 6.7 4 Noroeste 21 Noroeste 0.2 -- -- 96
2019-01-22 16:00:00 7.3 12 Noroeste 27 Noroeste 0 -- -- 93
2019-01-22 15:00:00 7.8 9 Noroeste 21 Noroeste 0 -- -- 94
2019-01-22 14:00:00 7.6 6 Noroeste 20 Noroeste 0 -- -- 98
2019-01-22 13:00:00 7.2 6 Noroeste 25 Noroeste 1.4 -- -- 99
2019-01-22 12:00:00 8.2 11 Noroeste 23 Noroeste 0.8 -- -- 99
2019-01-22 11:00:00 7.1 7 Noroeste 20 Noroeste 0 -- -- 99
2019-01-22 10:00:00 6.4 4 Noroeste 15 Noroeste 0 -- -- 99
2019-01-22 09:00:00 5.8 5 Noroeste 15 Noroeste 0.2 -- -- 99
2019-01-22 08:00:00 5.7 5 Noroeste 15 Oeste 0 -- -- 96
2019-01-22 07:00:00 5.5 5 Noroeste 13 Noroeste 0 -- -- 94
2019-01-22 06:00:00 5.2 4 Noroeste 11 Oeste 0 -- -- 95
2019-01-22 05:00:00 5.3 4 Noroeste 15 Noroeste 0 -- -- 97
2019-01-22 04:00:00 5.6 6 Noroeste 15 Noroeste 0 -- -- 97
2019-01-22 03:00:00 5.6 4 Noroeste 12 Noroeste 0 -- -- 97
2019-01-22 02:00:00 5.3 4 Noroeste 10 Sudoeste 0 -- -- 95
2019-01-22 01:00:00 5.7 0 Calma 3 Noroeste 0 -- -- 91
2019-01-22 00:00:00 5.3 0 Calma 2 Noroeste 0 -- -- 97
2019-01-21 23:00:00 5.3 0 Calma 3 Noroeste 0 -- -- 97
2019-01-21 22:00:00 5.1 0 Calma 2 Este 0 -- -- 97
2019-01-21 21:00:00 5.6 0 Calma 5 Sudeste 0 -- -- 97
2019-01-21 20:00:00 6 0 Calma 5 Noroeste 0 -- -- 94
2019-01-21 19:00:00 6.8 3 Noroeste 6 Norte 0 -- -- 91
2019-01-21 18:00:00 7.5 2 Noroeste 5 Noroeste 0 -- -- 87
2019-01-21 17:00:00 7.7 3 Noroeste 12 Noroeste 0 -- -- 88
2019-01-21 16:00:00 8.1 6 Noroeste 13 Noroeste 0 -- -- 87
2019-01-21 15:00:00 9.4 4 Norte 9 Este 0 -- -- 78
2019-01-21 14:00:00 9.4 2 Sudoeste 14 Noroeste 0 -- -- 88
2019-01-21 13:00:00 10 2 Noroeste 9 Sudeste 0 -- -- 78
2019-01-21 12:00:00 8.5 2 Nordeste 10 Norte 0 -- -- 87
2019-01-21 11:00:00 7.3 2 Noroeste 6 Norte 0 -- -- 94
2019-01-21 10:00:00 5.1 0 Calma 5 Norte 0 -- -- 99
2019-01-21 09:00:00 4.4 0 Calma 3 Este 0 -- -- 100
2019-01-21 08:00:00 4.4 0 Calma 6 Noroeste 0 -- -- 100
2019-01-21 07:00:00 5 2 Noroeste 7 Noroeste 0 -- -- 100
2019-01-21 06:00:00 5.4 0 Calma 4 Noroeste 0 -- -- 100
2019-01-21 05:00:00 5.5 0 Calma 5 Norte 0 -- -- 100
2019-01-21 04:00:00 5.7 0 Calma 2 Sudoeste 0 -- -- 100
2019-01-21 03:00:00 5.7 0 Calma 3 Noroeste 0 -- -- 100
2019-01-21 02:00:00 5.8 0 Calma 2 Sur 0 -- -- 100
2019-01-21 01:00:00 5.5 0 Calma 5 Norte 0.2 -- -- 100
2019-01-21 00:00:00 5.3 0 Calma 2 Oeste 0 -- -- 100
2019-01-20 23:00:00 5.4 0 Calma 6 Noroeste 0.2 -- -- 99
2019-01-20 22:00:00 5.4 0 Calma 9 Noroeste 0 -- -- 99
2019-01-20 21:00:00 5.8 0 Calma 3 Oeste 0 -- -- 98
2019-01-20 20:00:00 6.1 0 Calma 14 Noroeste 0 -- -- 97
2019-01-20 19:00:00 7 4 Noroeste 14 Nordeste 0.6 -- -- 98
2019-01-20 18:00:00 7.1 0 Calma 16 Noroeste 0.8 -- -- 97
2019-01-20 17:00:00 7.6 5 Noroeste 16 Noroeste 1 -- -- 95
2019-01-20 16:00:00 8.2 5 Noroeste 24 Noroeste 0.4 -- -- 92
2019-01-20 15:00:00 8.1 11 Noroeste 22 Noroeste 1 -- -- 93
2019-01-20 14:00:00 7.9 10 Noroeste 21 Noroeste 0.2 -- -- 99
2019-01-20 13:00:00 7.9 8 Noroeste 16 Noroeste 0 -- -- 98
2019-01-20 12:00:00 8.2 7 Noroeste 15 Noroeste 0.2 -- -- 99
2019-01-20 11:00:00 6.9 4 Noroeste 9 Oeste 0.2 -- -- 100
2019-01-20 10:00:00 6.1 2 Noroeste 9 Noroeste 0.2 -- -- 100
2019-01-20 09:00:00 5.8 0 Calma 4 Noroeste 0 -- -- 100
2019-01-20 08:00:00 5.7 2 Noroeste 4 Noroeste 0.2 -- -- 100
2019-01-20 07:00:00 5.6 0 Calma 3 Noroeste 0 -- -- 100
2019-01-20 06:00:00 5.6 0 Calma 6 Norte 0 -- -- 100
2019-01-20 05:00:00 5.7 3 Noroeste 6 Noroeste 0.4 -- -- 100
2019-01-20 04:00:00 5.8 3 Noroeste 7 Noroeste 0.2 -- -- 99
2019-01-20 03:00:00 6 2 Noroeste 11 Noroeste 0.4 -- -- 99
2019-01-20 02:00:00 6.3 4 Noroeste 17 Norte 0 -- -- 99
2019-01-20 01:00:00 6.6 6 Noroeste 12 Noroeste 0 -- -- 99
2019-01-20 00:00:00 6.5 3 Nordeste 19 Norte 0 -- -- 98
2019-01-19 23:00:00 7.3 10 Noroeste 21 Noroeste 0.6 -- -- 99
2019-01-19 22:00:00 7.7 7 Noroeste 18 Norte 0 -- -- 99
2019-01-19 21:00:00 8.2 9 Noroeste 30 Noroeste 0 -- -- 99
2019-01-19 20:00:00 9.5 15 Noroeste 32 Noroeste 2.2 -- -- 99
2019-01-19 19:00:00 10.1 5 Noroeste 12 Noroeste 4 -- -- 99
2019-01-19 18:00:00 10 6 Norte 27 Oeste 6.2 -- -- 98
2019-01-19 17:00:00 11.1 10 Noroeste 29 Oeste 0.6 -- -- 99
2019-01-19 16:00:00 11.4 13 Noroeste 36 Oeste 2.2 -- -- 98
2019-01-19 15:00:00 9.9 8 Sudeste 15 Sudeste 2.8 -- -- 96
2019-01-19 14:00:00 9.9 3 Sur 14 Sudoeste 1.4 -- -- 95
2019-01-19 13:00:00 9.4 6 Sur 27 Sur 1.6 -- -- 95
2019-01-19 12:00:00 9.1 5 Sudoeste 30 Sudeste 0.6 -- -- 94
2019-01-19 11:00:00 8.4 7 Sudoeste 31 Sur 0.2 -- -- 93
2019-01-19 10:00:00 8.5 8 Sur 30 Sur 0 -- -- 91
2019-01-19 09:00:00 7.4 9 Sur 23 Sudeste 0.4 -- -- 92
2019-01-19 08:00:00 6.7 14 Sudeste 27 Sur 0.2 -- -- 93
2019-01-19 07:00:00 7 10 Sur 18 Sudoeste 1 -- -- 94
2019-01-19 06:00:00 7.1 7 Sur 18 Sur 0.6 -- -- 94
2019-01-19 05:00:00 6.8 3 Sur 15 Sudeste 0.2 -- -- 96
2019-01-19 04:00:00 6.9 4 Sudoeste 19 Sudoeste 0 -- -- 95
2019-01-19 03:00:00 6.8 3 Oeste 18 Sudeste 0 -- -- 95
2019-01-19 02:00:00 6.7 4 Sur 15 Noroeste 0 -- -- 96
2019-01-19 01:00:00 6.6 0 Calma 5 Sur 0 -- -- 97
2019-01-19 00:00:00 6.4 0 Calma 10 Noroeste 0.4 -- -- 97